createdAt,value
2022-10-30T00:02:24.095Z,16.43
2022-10-30T00:04:50.802Z,16.41
2022-10-30T00:07:17.435Z,16.40
2022-10-30T00:09:44.124Z,16.37
2022-10-30T00:12:10.784Z,16.33
2022-10-30T00:14:37.514Z,16.29
2022-10-30T00:17:04.183Z,16.27
2022-10-30T00:19:30.954Z,16.26
2022-10-30T00:24:28.845Z,16.19
2022-10-30T00:26:55.777Z,16.13
2022-10-30T00:29:26.509Z,16.13
2022-10-30T00:31:53.694Z,16.13
2022-10-30T00:34:20.739Z,16.03
2022-10-30T00:36:47.385Z,16.05
2022-10-30T00:39:14.128Z,16.01
2022-10-30T00:41:41.826Z,16.00
2022-10-30T00:44:38.525Z,15.97
2022-10-30T00:47:15.783Z,15.93
2022-10-30T00:49:54.507Z,15.91
2022-10-30T00:52:23.288Z,15.90
2022-10-30T00:54:51.079Z,15.92
2022-10-30T00:57:18.681Z,15.90
2022-10-30T00:59:46.075Z,15.88
2022-10-30T01:02:12.841Z,15.87
2022-10-30T01:04:40.882Z,15.85
2022-10-30T01:07:11.911Z,15.82
2022-10-30T01:09:40.042Z,15.85
2022-10-30T01:12:07.015Z,15.83
2022-10-30T01:14:36.678Z,15.83
2022-10-30T01:17:25.683Z,15.80
2022-10-30T01:20:04.042Z,15.75
2022-10-30T01:22:37.074Z,15.71
2022-10-30T01:25:22.601Z,15.69
2022-10-30T01:28:06.773Z,15.66
2022-10-30T01:30:41.276Z,15.64
2022-10-30T01:33:37.460Z,15.62
2022-10-30T01:36:10.646Z,15.60
2022-10-30T01:38:43.038Z,15.57
2022-10-30T01:41:09.737Z,15.57
2022-10-30T01:43:37.404Z,15.52
2022-10-30T01:46:25.115Z,15.53
2022-10-30T01:49:13.330Z,15.49
2022-10-30T01:52:04.214Z,15.43
2022-10-30T01:54:52.802Z,15.41
2022-10-30T01:57:25.992Z,15.40
2022-10-30T02:00:04.184Z,15.38
2022-10-30T02:02:39.805Z,15.38
2022-10-30T02:05:09.512Z,15.37
2022-10-30T02:07:36.710Z,15.35
2022-10-30T02:10:05.998Z,15.31
2022-10-30T02:12:32.770Z,15.30
2022-10-30T02:15:00.997Z,15.26
2022-10-30T02:17:28.162Z,15.26
2022-10-30T02:19:54.855Z,15.21
2022-10-30T02:22:24.998Z,15.26
2022-10-30T02:24:52.168Z,15.25
2022-10-30T02:27:21.517Z,15.22
2022-10-30T02:29:49.413Z,15.22
2022-10-30T02:32:16.183Z,15.17
2022-10-30T02:34:44.210Z,15.16
2022-10-30T02:37:11.000Z,15.16
2022-10-30T02:39:39.020Z,15.12
2022-10-30T02:42:05.953Z,15.12
2022-10-30T02:44:32.637Z,15.08
2022-10-30T02:46:59.703Z,15.06
2022-10-30T02:49:27.035Z,15.05
2022-10-30T02:51:54.077Z,15.04
2022-10-30T02:54:20.787Z,15.01
2022-10-30T02:56:48.581Z,15.06
2022-10-30T02:59:15.258Z,15.05
2022-10-30T03:01:42.112Z,15.06
2022-10-30T03:04:08.947Z,15.01
2022-10-30T03:06:37.894Z,15.02
2022-10-30T03:09:04.645Z,15.02
2022-10-30T03:11:31.371Z,14.99
2022-10-30T03:13:58.092Z,15.03
2022-10-30T03:16:26.520Z,15.04
2022-10-30T03:18:54.390Z,15.03
2022-10-30T03:21:23.231Z,15.04
2022-10-30T03:23:50.780Z,15.02
2022-10-30T03:26:18.638Z,15.04
2022-10-30T03:28:50.100Z,15.03
2022-10-30T03:31:18.281Z,15.02
2022-10-30T03:33:46.405Z,15.04
2022-10-30T03:36:14.662Z,15.04
2022-10-30T03:38:41.957Z,15.01
2022-10-30T03:41:10.338Z,15.00
2022-10-30T03:43:37.279Z,15.00
2022-10-30T03:46:04.092Z,15.00
2022-10-30T03:48:31.735Z,14.96
2022-10-30T03:50:59.954Z,14.97
2022-10-30T03:53:28.727Z,14.99
2022-10-30T03:56:03.283Z,15.01
2022-10-30T03:58:38.074Z,15.01
2022-10-30T04:01:08.415Z,15.03
2022-10-30T04:03:38.656Z,15.03
2022-10-30T04:06:07.932Z,15.08
2022-10-30T04:08:34.835Z,15.08
2022-10-30T04:11:02.873Z,15.09
2022-10-30T04:13:29.773Z,15.10
2022-10-30T04:15:58.315Z,15.06
2022-10-30T04:18:26.195Z,15.05
2022-10-30T04:20:53.587Z,15.10
2022-10-30T04:23:21.382Z,15.12
2022-10-30T04:25:48.551Z,15.14
2022-10-30T04:28:15.337Z,15.11
2022-10-30T04:30:42.617Z,15.11
2022-10-30T04:33:13.471Z,15.12
2022-10-30T04:35:41.592Z,15.17
2022-10-30T04:38:19.755Z,15.21
2022-10-30T04:40:47.732Z,15.20
2022-10-30T04:43:15.573Z,15.19
2022-10-30T04:45:45.731Z,15.14
2022-10-30T04:48:15.515Z,15.14
2022-10-30T04:50:43.935Z,15.19
2022-10-30T04:53:16.433Z,15.19
2022-10-30T04:55:44.561Z,15.20
2022-10-30T04:58:13.163Z,15.15
2022-10-30T05:00:42.340Z,15.17
2022-10-30T05:03:22.333Z,15.19
2022-10-30T05:05:56.964Z,15.20
2022-10-30T05:08:23.802Z,15.26
2022-10-30T05:10:50.576Z,15.22
2022-10-30T05:13:17.320Z,15.23
2022-10-30T05:15:44.147Z,15.23
2022-10-30T05:18:10.894Z,15.25
2022-10-30T05:20:37.981Z,15.25
2022-10-30T05:23:04.934Z,15.27
2022-10-30T05:25:32.334Z,15.23
2022-10-30T05:28:02.479Z,15.26
2022-10-30T05:30:32.949Z,15.28
2022-10-30T05:33:08.078Z,15.27
2022-10-30T05:35:35.595Z,15.30
2022-10-30T05:38:06.776Z,15.34
2022-10-30T05:40:34.539Z,15.27
2022-10-30T05:43:01.638Z,15.31
2022-10-30T05:45:29.139Z,15.38
2022-10-30T05:48:00.609Z,15.30
2022-10-30T05:50:32.039Z,15.32
2022-10-30T05:53:17.816Z,14.85
2022-10-30T05:55:44.587Z,14.63
2022-10-30T05:58:19.491Z,14.94
2022-10-30T06:00:46.843Z,15.06
2022-10-30T06:03:19.310Z,15.22
2022-10-30T06:05:46.907Z,15.30
2022-10-30T06:08:16.461Z,15.39
2022-10-30T06:10:44.664Z,15.39
2022-10-30T06:13:14.644Z,15.44
2022-10-30T06:15:57.534Z,15.45
2022-10-30T06:18:28.503Z,15.46
2022-10-30T06:20:59.919Z,15.50
2022-10-30T06:23:45.168Z,15.44
2022-10-30T06:26:38.021Z,15.38
2022-10-30T06:29:09.287Z,15.45
2022-10-30T06:31:36.028Z,15.47
2022-10-30T06:34:03.535Z,15.48
2022-10-30T06:36:32.376Z,15.49
2022-10-30T06:38:59.541Z,15.43
2022-10-30T06:41:33.951Z,15.41
2022-10-30T06:44:20.815Z,15.39
2022-10-30T06:46:47.616Z,15.43
2022-10-30T06:49:14.325Z,15.43
2022-10-30T06:51:41.245Z,15.47
2022-10-30T06:54:08.016Z,15.49
2022-10-30T06:56:40.640Z,15.47
2022-10-30T06:59:25.980Z,15.54
2022-10-30T07:02:25.258Z,15.38
2022-10-30T07:04:56.053Z,15.54
2022-10-30T07:07:22.788Z,15.54
2022-10-30T07:09:49.971Z,15.60
2022-10-30T07:12:20.496Z,15.62
2022-10-30T07:15:06.126Z,15.56
2022-10-30T07:17:39.098Z,15.63
2022-10-30T07:20:11.760Z,15.64
2022-10-30T07:22:39.275Z,15.72
2022-10-30T07:25:07.676Z,15.59
2022-10-30T07:27:45.497Z,15.53
2022-10-30T07:30:47.701Z,15.50
2022-10-30T07:33:43.605Z,15.52
2022-10-30T07:36:36.777Z,15.74
2022-10-30T07:39:13.463Z,15.80
2022-10-30T07:41:58.766Z,15.90
2022-10-30T07:44:43.738Z,15.91
2022-10-30T07:47:29.262Z,16.02
2022-10-30T07:50:02.528Z,16.04
2022-10-30T07:52:35.808Z,16.06
2022-10-30T07:55:02.812Z,16.08
2022-10-30T07:57:52.300Z,16.05
2022-10-30T08:00:37.401Z,16.15
2022-10-30T08:03:19.951Z,16.26
2022-10-30T08:08:41.996Z,16.34
2022-10-30T08:11:31.378Z,16.45
2022-10-30T08:13:59.465Z,16.54
2022-10-30T08:16:26.140Z,16.64
2022-10-30T08:18:53.077Z,16.95
2022-10-30T08:21:23.483Z,17.12
2022-10-30T08:23:56.902Z,17.38
2022-10-30T08:26:26.745Z,17.49
2022-10-30T08:28:53.458Z,17.57
2022-10-30T08:31:20.604Z,17.76
2022-10-30T08:34:02.163Z,17.84
2022-10-30T08:36:35.239Z,18.00
2022-10-30T08:39:04.171Z,17.86
2022-10-30T08:42:00.333Z,17.96
2022-10-30T08:44:32.526Z,18.08
2022-10-30T08:47:25.347Z,18.03
2022-10-30T08:49:52.974Z,18.16
2022-10-30T08:52:22.609Z,18.18
2022-10-30T08:54:55.537Z,18.34
2022-10-30T08:57:24.361Z,18.28
2022-10-30T08:59:52.144Z,18.33
2022-10-30T09:02:39.700Z,18.29
2022-10-30T09:05:38.504Z,18.48
2022-10-30T09:08:31.173Z,18.83
2022-10-30T09:11:04.028Z,19.10
2022-10-30T09:13:30.931Z,19.34
2022-10-30T09:16:02.367Z,19.81
2022-10-30T09:18:31.624Z,20.19
2022-10-30T09:21:01.574Z,20.56
2022-10-30T09:23:33.449Z,20.94
2022-10-30T09:26:38.441Z,21.32
2022-10-30T09:29:12.745Z,21.63
2022-10-30T09:31:45.519Z,21.90
2022-10-30T09:34:16.827Z,22.15
2022-10-30T09:37:12.803Z,22.41
2022-10-30T09:39:39.544Z,22.63
2022-10-30T09:42:19.511Z,22.88
2022-10-30T09:48:47.350Z,23.32
2022-10-30T09:51:49.414Z,23.53
2022-10-30T09:54:38.564Z,23.74
2022-10-30T09:57:19.869Z,23.95
2022-10-30T10:00:23.239Z,24.16
2022-10-30T10:03:06.930Z,24.32
2022-10-30T10:05:56.466Z,24.43
2022-10-30T10:08:42.857Z,24.59
2022-10-30T10:11:35.852Z,24.60
2022-10-30T10:14:09.634Z,24.80
2022-10-30T10:16:38.959Z,24.98
2022-10-30T10:19:27.471Z,25.14
2022-10-30T10:22:00.943Z,25.18
2022-10-30T10:24:31.284Z,25.29
2022-10-30T10:27:11.175Z,25.38
2022-10-30T10:29:50.655Z,25.54
2022-10-30T10:32:51.163Z,25.58
2022-10-30T10:35:48.720Z,25.70
2022-10-30T10:38:27.433Z,25.75
2022-10-30T10:41:00.704Z,25.78
2022-10-30T10:43:51.631Z,25.75
2022-10-30T10:46:44.640Z,25.70
2022-10-30T10:49:46.737Z,25.66
2022-10-30T10:52:17.966Z,25.57
2022-10-30T10:54:54.058Z,25.60
2022-10-30T10:57:28.167Z,25.57
2022-10-30T11:00:03.054Z,25.50
2022-10-30T11:02:41.578Z,25.39
2022-10-30T11:05:16.720Z,25.14
2022-10-30T11:07:48.775Z,25.00
2022-10-30T11:10:17.769Z,24.89
2022-10-30T11:12:44.530Z,24.65
2022-10-30T11:15:33.393Z,24.49
2022-10-30T11:18:03.421Z,24.18
2022-10-30T11:20:36.630Z,23.96
2022-10-30T11:23:03.371Z,23.89
2022-10-30T11:25:35.097Z,23.66
2022-10-30T11:28:04.783Z,23.69
2022-10-30T11:30:31.587Z,23.56
2022-10-30T11:32:59.265Z,23.49
2022-10-30T11:35:26.447Z,23.27
2022-10-30T11:38:15.968Z,23.19
2022-10-30T11:40:47.823Z,23.21
2022-10-30T11:43:16.596Z,23.01
2022-10-30T11:45:43.591Z,22.98
2022-10-30T11:48:15.261Z,22.87
2022-10-30T11:50:47.082Z,22.87
2022-10-30T11:53:21.692Z,22.74
2022-10-30T11:55:49.776Z,22.72
2022-10-30T11:58:30.015Z,22.66
2022-10-30T12:01:21.466Z,22.57
2022-10-30T12:03:48.294Z,22.55
2022-10-30T12:06:26.204Z,22.45
2022-10-30T12:09:15.996Z,22.35
2022-10-30T12:11:46.079Z,22.33
2022-10-30T12:14:23.058Z,22.34
2022-10-30T12:16:55.480Z,22.29
2022-10-30T12:19:24.093Z,22.25
2022-10-30T12:21:53.953Z,22.21
2022-10-30T12:24:31.397Z,22.17
2022-10-30T12:27:02.008Z,22.11
2022-10-30T12:30:07.485Z,22.06
2022-10-30T12:32:39.807Z,22.07
2022-10-30T12:35:17.441Z,21.97
2022-10-30T12:37:44.387Z,22.00
2022-10-30T12:40:21.076Z,22.01
2022-10-30T12:43:05.390Z,21.95
2022-10-30T12:45:40.059Z,21.90
2022-10-30T12:48:23.558Z,22.02
2022-10-30T12:51:08.936Z,22.05
2022-10-30T12:53:41.123Z,22.00
2022-10-30T12:56:19.568Z,22.09
2022-10-30T12:58:50.913Z,22.08
2022-10-30T13:01:35.946Z,22.04
2022-10-30T13:04:19.014Z,22.04
2022-10-30T13:06:51.317Z,22.00
2022-10-30T13:09:36.107Z,22.05
2022-10-30T13:12:25.385Z,22.06
2022-10-30T13:14:58.597Z,21.97
2022-10-30T13:17:25.335Z,22.00
2022-10-30T13:19:52.071Z,22.01
2022-10-30T13:22:20.792Z,22.03
2022-10-30T13:25:15.004Z,22.03
2022-10-30T13:27:52.490Z,22.01
2022-10-30T13:30:23.831Z,21.95
2022-10-30T13:33:08.916Z,21.92
2022-10-30T13:35:36.670Z,21.91
2022-10-30T13:38:17.360Z,21.89
2022-10-30T13:40:51.250Z,21.89
2022-10-30T13:43:21.999Z,21.87
2022-10-30T13:46:11.970Z,21.88
2022-10-30T13:49:17.139Z,21.87
2022-10-30T13:51:56.370Z,21.81
2022-10-30T13:54:30.860Z,21.83
2022-10-30T13:57:02.260Z,21.81
2022-10-30T13:59:45.286Z,21.81
2022-10-30T14:02:22.778Z,21.79
2022-10-30T14:04:58.182Z,21.73
2022-10-30T14:07:36.054Z,21.70
2022-10-30T14:10:08.847Z,21.64
2022-10-30T14:12:44.193Z,21.61
2022-10-30T14:15:20.071Z,21.63
2022-10-30T14:18:14.529Z,21.64
2022-10-30T14:20:51.610Z,21.63
2022-10-30T14:23:23.809Z,21.63
2022-10-30T14:26:03.138Z,21.61
2022-10-30T14:28:49.195Z,21.58
2022-10-30T14:31:18.333Z,21.54
2022-10-30T14:33:49.136Z,21.51
2022-10-30T14:36:25.914Z,21.48
2022-10-30T14:39:21.631Z,21.44
2022-10-30T14:42:14.484Z,21.41
2022-10-30T14:45:29.204Z,21.35
2022-10-30T14:48:14.736Z,21.27
2022-10-30T14:50:59.803Z,21.23
2022-10-30T14:53:57.470Z,21.18
2022-10-30T14:56:55.113Z,21.12
2022-10-30T14:59:24.728Z,21.05
2022-10-30T15:01:56.812Z,20.99
2022-10-30T15:04:57.697Z,20.94
2022-10-30T15:07:25.575Z,20.86
2022-10-30T15:10:03.970Z,20.79
2022-10-30T15:12:47.112Z,20.74
2022-10-30T15:15:15.824Z,20.65
2022-10-30T15:17:45.966Z,20.60
2022-10-30T15:20:18.934Z,20.54
2022-10-30T15:22:51.830Z,20.47
2022-10-30T15:25:20.566Z,20.40
2022-10-30T15:27:50.903Z,20.35
2022-10-30T15:30:24.548Z,20.29
2022-10-30T15:32:51.867Z,20.22
2022-10-30T15:35:24.190Z,20.17
2022-10-30T15:38:08.174Z,20.10
2022-10-30T15:40:35.873Z,20.02
2022-10-30T15:43:03.946Z,19.94
2022-10-30T15:45:45.324Z,19.86
2022-10-30T15:48:23.370Z,19.77
2022-10-30T15:51:04.681Z,19.72
2022-10-30T15:53:36.741Z,19.64
2022-10-30T15:56:03.797Z,19.58
2022-10-30T15:58:31.989Z,19.54
2022-10-30T16:01:00.350Z,19.47
2022-10-30T16:03:27.617Z,19.39
2022-10-30T16:06:17.177Z,19.31
2022-10-30T16:08:45.944Z,19.25
2022-10-30T16:11:12.967Z,19.20
2022-10-30T16:13:39.669Z,19.16
2022-10-30T16:16:07.631Z,19.09
2022-10-30T16:18:36.054Z,19.04
2022-10-30T16:21:06.267Z,18.99
2022-10-30T16:23:47.713Z,18.95
2022-10-30T16:26:30.252Z,18.90
2022-10-30T16:28:57.816Z,18.81
2022-10-30T16:31:24.952Z,18.75
2022-10-30T16:33:51.717Z,18.68
2022-10-30T16:36:18.611Z,18.62
2022-10-30T16:38:47.396Z,18.56
2022-10-30T16:41:14.490Z,18.53
2022-10-30T16:43:44.784Z,18.44
2022-10-30T16:46:14.423Z,18.39
2022-10-30T16:48:55.047Z,18.35
2022-10-30T16:51:21.851Z,18.29
2022-10-30T16:53:49.215Z,18.25
2022-10-30T16:56:27.835Z,18.19
2022-10-30T16:58:57.558Z,18.14
2022-10-30T17:01:26.521Z,18.09
2022-10-30T17:03:54.010Z,18.04
2022-10-30T17:06:39.900Z,17.99
2022-10-30T17:09:26.481Z,17.95
2022-10-30T17:12:15.925Z,17.88
2022-10-30T17:14:51.995Z,17.83
2022-10-30T17:17:23.140Z,17.80
2022-10-30T17:19:55.844Z,17.78
2022-10-30T17:22:22.649Z,17.72
2022-10-30T17:24:49.365Z,17.70
2022-10-30T17:27:32.069Z,17.66
2022-10-30T17:29:58.810Z,17.61
2022-10-30T17:32:41.886Z,17.58
2022-10-30T17:35:19.548Z,17.52
2022-10-30T17:37:46.674Z,17.48
2022-10-30T17:40:14.036Z,17.45
2022-10-30T17:42:41.194Z,17.40
2022-10-30T17:45:10.839Z,17.36
2022-10-30T17:47:38.081Z,17.32
2022-10-30T17:50:05.720Z,17.28
2022-10-30T17:52:33.215Z,17.25
2022-10-30T17:55:01.559Z,17.23
2022-10-30T17:57:28.974Z,17.19
2022-10-30T17:59:55.736Z,17.15
2022-10-30T18:02:23.364Z,17.09
2022-10-30T18:04:50.627Z,17.08
2022-10-30T18:07:17.698Z,17.05
2022-10-30T18:09:44.692Z,17.01
2022-10-30T18:12:15.560Z,16.98
2022-10-30T18:14:43.333Z,16.95
2022-10-30T18:17:10.747Z,16.92
2022-10-30T18:19:37.442Z,16.87
2022-10-30T18:22:04.087Z,16.81
2022-10-30T18:24:30.796Z,16.79
2022-10-30T18:26:58.641Z,16.72
2022-10-30T18:29:25.377Z,16.68
2022-10-30T18:31:52.067Z,16.66
2022-10-30T18:34:21.717Z,16.64
2022-10-30T18:36:48.877Z,16.62
2022-10-30T18:39:15.617Z,16.58
2022-10-30T18:41:46.508Z,16.56
2022-10-30T18:44:14.921Z,16.50
2022-10-30T18:46:43.942Z,16.49
2022-10-30T18:49:10.980Z,16.44
2022-10-30T18:51:37.947Z,16.41
2022-10-30T18:54:11.939Z,16.40
2022-10-30T18:56:38.623Z,16.36
2022-10-30T18:59:05.461Z,16.32
2022-10-30T19:01:32.648Z,16.30
2022-10-30T19:04:04.013Z,16.28
2022-10-30T19:06:32.975Z,16.25
2022-10-30T19:08:59.727Z,16.22
2022-10-30T19:11:28.277Z,16.19
2022-10-30T19:13:57.056Z,16.18
2022-10-30T19:16:26.575Z,16.15
2022-10-30T19:18:53.540Z,16.09
2022-10-30T19:21:22.637Z,16.06
2022-10-30T19:23:49.643Z,16.02
2022-10-30T19:26:17.585Z,16.01
2022-10-30T19:28:45.402Z,16.00
2022-10-30T19:31:17.228Z,15.97
2022-10-30T19:33:44.515Z,15.94
2022-10-30T19:36:43.730Z,15.90
2022-10-30T19:39:12.825Z,15.86
2022-10-30T19:41:40.241Z,15.81
2022-10-30T19:44:06.990Z,15.80
2022-10-30T19:46:33.995Z,15.78
2022-10-30T19:49:00.815Z,15.74
2022-10-30T19:51:28.275Z,15.69
2022-10-30T19:53:54.989Z,15.66
2022-10-30T19:56:22.137Z,15.64
2022-10-30T19:58:49.183Z,15.64
2022-10-30T20:01:16.347Z,15.60
2022-10-30T20:03:43.221Z,15.59
2022-10-30T20:06:13.588Z,15.57
2022-10-30T20:08:40.406Z,15.51
2022-10-30T20:11:07.278Z,15.51
2022-10-30T20:13:34.136Z,15.46
2022-10-30T20:16:02.747Z,15.39
2022-10-30T20:18:31.701Z,15.37
2022-10-30T20:21:00.617Z,15.37
2022-10-30T20:23:28.051Z,15.32
2022-10-30T20:25:58.502Z,15.32
2022-10-30T20:28:37.359Z,15.30
2022-10-30T20:31:05.108Z,15.26
2022-10-30T20:33:31.922Z,15.20
2022-10-30T20:35:58.779Z,15.22
2022-10-30T20:38:30.662Z,15.18
2022-10-30T20:40:58.637Z,15.16
2022-10-30T20:43:28.359Z,15.14
2022-10-30T20:45:55.038Z,15.13
2022-10-30T20:48:21.805Z,15.10
2022-10-30T20:50:50.844Z,15.08
2022-10-30T20:53:17.752Z,15.05
2022-10-30T20:55:45.377Z,14.99
2022-10-30T20:58:12.157Z,14.96
2022-10-30T21:00:38.924Z,14.94
2022-10-30T21:03:06.320Z,14.94
2022-10-30T21:05:45.392Z,14.92
2022-10-30T21:08:15.830Z,14.88
2022-10-30T21:10:42.925Z,14.83
2022-10-30T21:13:11.292Z,14.84
2022-10-30T21:15:40.270Z,14.82
2022-10-30T21:18:07.685Z,14.82
2022-10-30T21:20:34.353Z,14.81
2022-10-30T21:23:01.028Z,14.78
2022-10-30T21:25:28.803Z,14.74
2022-10-30T21:27:58.899Z,14.74
2022-10-30T21:30:25.554Z,14.72
2022-10-30T21:32:52.330Z,14.70
2022-10-30T21:35:19.383Z,14.68
2022-10-30T21:37:46.154Z,14.65
2022-10-30T21:40:13.170Z,14.65
2022-10-30T21:42:39.864Z,14.62
2022-10-30T21:45:07.207Z,14.61
2022-10-30T21:47:33.885Z,14.58
2022-10-30T21:50:00.542Z,14.57
2022-10-30T21:52:27.244Z,14.53
2022-10-30T21:54:53.929Z,14.52
2022-10-30T21:57:20.644Z,14.48
2022-10-30T21:59:47.303Z,14.47
2022-10-30T22:02:15.484Z,14.44
2022-10-30T22:04:42.345Z,14.43
2022-10-30T22:07:09.275Z,14.41
2022-10-30T22:09:35.948Z,14.38
2022-10-30T22:12:02.648Z,14.37
2022-10-30T22:14:29.532Z,14.35
2022-10-30T22:16:56.467Z,14.31
2022-10-30T22:19:23.182Z,14.31
2022-10-30T22:21:49.852Z,14.27
2022-10-30T22:24:17.488Z,14.27
2022-10-30T22:26:44.321Z,14.25
2022-10-30T22:29:11.563Z,14.24
2022-10-30T22:31:38.254Z,14.22
2022-10-30T22:34:04.987Z,14.20
2022-10-30T22:36:33.368Z,14.17
2022-10-30T22:39:00.827Z,14.17
2022-10-30T22:41:31.403Z,14.14
2022-10-30T22:44:01.447Z,14.07
2022-10-30T22:46:30.060Z,14.10
2022-10-30T22:48:57.657Z,14.07
2022-10-30T22:51:25.519Z,14.05
2022-10-30T22:53:57.657Z,14.04
2022-10-30T22:56:29.898Z,14.04
2022-10-30T22:58:57.007Z,14.01
2022-10-30T23:01:28.894Z,14.00
2022-10-30T23:03:57.684Z,13.98
2022-10-30T23:06:24.720Z,13.93
2022-10-30T23:08:56.916Z,13.90
2022-10-30T23:11:24.302Z,13.92
2022-10-30T23:13:53.840Z,13.90
2022-10-30T23:16:22.933Z,13.89
2022-10-30T23:18:50.561Z,13.86
2022-10-30T23:21:22.337Z,13.85
2022-10-30T23:23:49.434Z,13.82
2022-10-30T23:26:19.410Z,13.80
2022-10-30T23:28:46.827Z,13.79
2022-10-30T23:31:27.036Z,13.77
2022-10-30T23:33:56.761Z,13.72
2022-10-30T23:36:23.869Z,13.72
2022-10-30T23:38:54.502Z,13.72
2022-10-30T23:41:22.239Z,13.70
2022-10-30T23:43:48.992Z,13.67
2022-10-30T23:46:15.669Z,13.66
2022-10-30T23:48:42.320Z,13.65
2022-10-30T23:51:09.427Z,13.62
2022-10-30T23:53:36.194Z,13.63
2022-10-30T23:56:04.219Z,13.62
2022-10-30T23:58:30.865Z,13.60
